sensor_id;sensor_type;location;lat;lon;timestamp;P1;durP1;ratioP1;P2;durP2;ratioP2
18280;SDS011;9266;51.132;17.062;2023-08-12T00:02:14;15.80;;;12.07;;
18280;SDS011;9266;51.132;17.062;2023-08-12T00:04:41;15.10;;;11.30;;
18280;SDS011;9266;51.132;17.062;2023-08-12T00:07:08;15.03;;;11.90;;
18280;SDS011;9266;51.132;17.062;2023-08-12T00:09:35;14.20;;;11.37;;
18280;SDS011;9266;51.132;17.062;2023-08-12T00:12:02;16.47;;;11.97;;
18280;SDS011;9266;51.132;17.062;2023-08-12T00:14:31;13.40;;;11.97;;
18280;SDS011;9266;51.132;17.062;2023-08-12T00:16:58;13.67;;;11.53;;
18280;SDS011;9266;51.132;17.062;2023-08-12T00:19:25;12.70;;;11.40;;
18280;SDS011;9266;51.132;17.062;2023-08-12T00:21:52;13.17;;;11.40;;
18280;SDS011;9266;51.132;17.062;2023-08-12T00:24:19;15.03;;;11.23;;
18280;SDS011;9266;51.132;17.062;2023-08-12T00:26:46;13.53;;;12.10;;
18280;SDS011;9266;51.132;17.062;2023-08-12T00:29:13;14.67;;;12.03;;
18280;SDS011;9266;51.132;17.062;2023-08-12T00:31:41;13.37;;;11.47;;
18280;SDS011;9266;51.132;17.062;2023-08-12T00:34:08;14.83;;;11.70;;
18280;SDS011;9266;51.132;17.062;2023-08-12T00:36:35;12.47;;;11.30;;
18280;SDS011;9266;51.132;17.062;2023-08-12T00:39:02;14.07;;;11.53;;
18280;SDS011;9266;51.132;17.062;2023-08-12T00:41:30;11.40;;;10.20;;
18280;SDS011;9266;51.132;17.062;2023-08-12T00:43:57;15.33;;;11.00;;
18280;SDS011;9266;51.132;17.062;2023-08-12T00:46:24;12.87;;;10.90;;
18280;SDS011;9266;51.132;17.062;2023-08-12T00:48:52;12.93;;;10.70;;
18280;SDS011;9266;51.132;17.062;2023-08-12T00:51:19;11.30;;;10.20;;
18280;SDS011;9266;51.132;17.062;2023-08-12T00:53:46;14.00;;;10.93;;
18280;SDS011;9266;51.132;17.062;2023-08-12T00:56:13;12.60;;;11.30;;
18280;SDS011;9266;51.132;17.062;2023-08-12T00:58:41;12.17;;;10.80;;
18280;SDS011;9266;51.132;17.062;2023-08-12T01:01:10;14.17;;;10.73;;
18280;SDS011;9266;51.132;17.062;2023-08-12T01:03:38;12.33;;;11.13;;
18280;SDS011;9266;51.132;17.062;2023-08-12T01:06:07;12.87;;;11.57;;
18280;SDS011;9266;51.132;17.062;2023-08-12T01:08:34;11.70;;;10.67;;
18280;SDS011;9266;51.132;17.062;2023-08-12T01:11:03;11.57;;;10.37;;
18280;SDS011;9266;51.132;17.062;2023-08-12T01:13:38;12.20;;;10.93;;
18280;SDS011;9266;51.132;17.062;2023-08-12T01:16:13;11.83;;;10.60;;
18280;SDS011;9266;51.132;17.062;2023-08-12T01:18:42;12.13;;;10.87;;
18280;SDS011;9266;51.132;17.062;2023-08-12T01:21:14;12.27;;;10.90;;
18280;SDS011;9266;51.132;17.062;2023-08-12T01:23:44;11.97;;;10.80;;
18280;SDS011;9266;51.132;17.062;2023-08-12T01:26:11;12.70;;;11.40;;
18280;SDS011;9266;51.132;17.062;2023-08-12T01:28:38;11.93;;;10.83;;
18280;SDS011;9266;51.132;17.062;2023-08-12T01:31:06;12.63;;;11.43;;
18280;SDS011;9266;51.132;17.062;2023-08-12T01:33:39;12.40;;;11.10;;
18280;SDS011;9266;51.132;17.062;2023-08-12T01:36:12;12.27;;;11.07;;
18280;SDS011;9266;51.132;17.062;2023-08-12T01:38:45;12.27;;;10.27;;
18280;SDS011;9266;51.132;17.062;2023-08-12T01:41:13;11.07;;;10.07;;
18280;SDS011;9266;51.132;17.062;2023-08-12T01:43:41;11.97;;;10.40;;
18280;SDS011;9266;51.132;17.062;2023-08-12T01:46:09;11.70;;;10.43;;
18280;SDS011;9266;51.132;17.062;2023-08-12T01:48:36;12.07;;;10.83;;
18280;SDS011;9266;51.132;17.062;2023-08-12T01:51:03;12.17;;;10.03;;
18280;SDS011;9266;51.132;17.062;2023-08-12T01:53:30;11.60;;;10.40;;
18280;SDS011;9266;51.132;17.062;2023-08-12T01:55:59;13.73;;;9.83;;
18280;SDS011;9266;51.132;17.062;2023-08-12T01:58:26;11.87;;;10.60;;
18280;SDS011;9266;51.132;17.062;2023-08-12T02:00:53;14.33;;;10.23;;
18280;SDS011;9266;51.132;17.062;2023-08-12T02:03:20;11.57;;;10.10;;
18280;SDS011;9266;51.132;17.062;2023-08-12T02:05:47;11.47;;;10.30;;
18280;SDS011;9266;51.132;17.062;2023-08-12T02:08:14;11.80;;;10.57;;
18280;SDS011;9266;51.132;17.062;2023-08-12T02:10:41;12.60;;;10.93;;
18280;SDS011;9266;51.132;17.062;2023-08-12T02:13:09;12.57;;;11.27;;
18280;SDS011;9266;51.132;17.062;2023-08-12T02:15:36;11.60;;;10.50;;
18280;SDS011;9266;51.132;17.062;2023-08-12T02:18:03;12.10;;;10.90;;
18280;SDS011;9266;51.132;17.062;2023-08-12T02:20:31;12.33;;;11.13;;
18280;SDS011;9266;51.132;17.062;2023-08-12T02:22:57;13.73;;;11.33;;
18280;SDS011;9266;51.132;17.062;2023-08-12T02:25:24;14.80;;;11.00;;
18280;SDS011;9266;51.132;17.062;2023-08-12T02:27:51;12.17;;;10.87;;
18280;SDS011;9266;51.132;17.062;2023-08-12T02:30:20;15.13;;;12.40;;
18280;SDS011;9266;51.132;17.062;2023-08-12T02:32:47;13.27;;;11.83;;
18280;SDS011;9266;51.132;17.062;2023-08-12T02:35:14;11.70;;;10.53;;
18280;SDS011;9266;51.132;17.062;2023-08-12T02:37:42;12.43;;;11.23;;
18280;SDS011;9266;51.132;17.062;2023-08-12T02:40:09;12.67;;;10.83;;
18280;SDS011;9266;51.132;17.062;2023-08-12T02:42:36;13.57;;;10.90;;
18280;SDS011;9266;51.132;17.062;2023-08-12T02:45:04;12.07;;;10.67;;
18280;SDS011;9266;51.132;17.062;2023-08-12T02:47:33;12.57;;;11.00;;
18280;SDS011;9266;51.132;17.062;2023-08-12T02:50:00;12.60;;;11.30;;
18280;SDS011;9266;51.132;17.062;2023-08-12T02:52:27;12.23;;;11.03;;
18280;SDS011;9266;51.132;17.062;2023-08-12T02:54:54;13.03;;;11.73;;
18280;SDS011;9266;51.132;17.062;2023-08-12T02:57:21;14.27;;;11.90;;
18280;SDS011;9266;51.132;17.062;2023-08-12T02:59:48;14.03;;;11.63;;
18280;SDS011;9266;51.132;17.062;2023-08-12T03:02:15;12.60;;;11.30;;
18280;SDS011;9266;51.132;17.062;2023-08-12T03:04:43;12.47;;;10.60;;
18280;SDS011;9266;51.132;17.062;2023-08-12T03:07:10;12.50;;;11.20;;
18280;SDS011;9266;51.132;17.062;2023-08-12T03:09:37;13.87;;;11.73;;
18280;SDS011;9266;51.132;17.062;2023-08-12T03:12:04;13.30;;;11.90;;
18280;SDS011;9266;51.132;17.062;2023-08-12T03:14:32;13.03;;;11.47;;
18280;SDS011;9266;51.132;17.062;2023-08-12T03:16:59;12.43;;;11.13;;
18280;SDS011;9266;51.132;17.062;2023-08-12T03:19:26;13.87;;;12.10;;
18280;SDS011;9266;51.132;17.062;2023-08-12T03:21:54;14.03;;;12.10;;
18280;SDS011;9266;51.132;17.062;2023-08-12T03:24:21;12.90;;;11.60;;
18280;SDS011;9266;51.132;17.062;2023-08-12T03:26:49;12.27;;;11.07;;
18280;SDS011;9266;51.132;17.062;2023-08-12T03:29:16;14.30;;;12.77;;
18280;SDS011;9266;51.132;17.062;2023-08-12T03:31:43;13.40;;;12.10;;
18280;SDS011;9266;51.132;17.062;2023-08-12T03:34:10;12.73;;;11.50;;
18280;SDS011;9266;51.132;17.062;2023-08-12T03:36:37;16.23;;;11.23;;
18280;SDS011;9266;51.132;17.062;2023-08-12T03:39:05;12.73;;;11.23;;
18280;SDS011;9266;51.132;17.062;2023-08-12T03:41:32;13.10;;;11.20;;
18280;SDS011;9266;51.132;17.062;2023-08-12T03:43:59;13.13;;;11.80;;
18280;SDS011;9266;51.132;17.062;2023-08-12T03:46:26;13.53;;;12.13;;
18280;SDS011;9266;51.132;17.062;2023-08-12T03:48:53;12.03;;;10.73;;
18280;SDS011;9266;51.132;17.062;2023-08-12T03:51:20;13.70;;;10.83;;
18280;SDS011;9266;51.132;17.062;2023-08-12T03:53:47;11.70;;;10.43;;
18280;SDS011;9266;51.132;17.062;2023-08-12T03:56:15;12.20;;;11.10;;
18280;SDS011;9266;51.132;17.062;2023-08-12T03:58:42;11.33;;;9.97;;
18280;SDS011;9266;51.132;17.062;2023-08-12T04:01:09;11.47;;;10.27;;
18280;SDS011;9266;51.132;17.062;2023-08-12T04:03:36;11.77;;;10.30;;
18280;SDS011;9266;51.132;17.062;2023-08-12T04:06:03;11.33;;;10.33;;
18280;SDS011;9266;51.132;17.062;2023-08-12T04:08:30;14.77;;;10.07;;
18280;SDS011;9266;51.132;17.062;2023-08-12T04:10:58;12.90;;;9.97;;
18280;SDS011;9266;51.132;17.062;2023-08-12T04:13:27;11.33;;;9.37;;
18280;SDS011;9266;51.132;17.062;2023-08-12T04:15:54;10.63;;;9.43;;
18280;SDS011;9266;51.132;17.062;2023-08-12T04:18:21;11.57;;;10.13;;
18280;SDS011;9266;51.132;17.062;2023-08-12T04:20:48;10.37;;;9.33;;
18280;SDS011;9266;51.132;17.062;2023-08-12T04:23:16;11.47;;;9.63;;
18280;SDS011;9266;51.132;17.062;2023-08-12T04:25:43;10.50;;;9.23;;
18280;SDS011;9266;51.132;17.062;2023-08-12T04:28:11;11.60;;;9.50;;
18280;SDS011;9266;51.132;17.062;2023-08-12T04:30:41;10.10;;;9.10;;
18280;SDS011;9266;51.132;17.062;2023-08-12T04:33:08;10.43;;;8.97;;
18280;SDS011;9266;51.132;17.062;2023-08-12T04:35:35;10.83;;;8.90;;
18280;SDS011;9266;51.132;17.062;2023-08-12T04:38:03;10.70;;;8.97;;
18280;SDS011;9266;51.132;17.062;2023-08-12T04:40:30;8.93;;;8.03;;
18280;SDS011;9266;51.132;17.062;2023-08-12T04:42:58;10.73;;;7.67;;
18280;SDS011;9266;51.132;17.062;2023-08-12T04:45:25;11.53;;;7.90;;
18280;SDS011;9266;51.132;17.062;2023-08-12T04:47:53;11.67;;;7.17;;
18280;SDS011;9266;51.132;17.062;2023-08-12T04:50:21;8.30;;;7.50;;
18280;SDS011;9266;51.132;17.062;2023-08-12T04:52:48;9.67;;;7.40;;
18280;SDS011;9266;51.132;17.062;2023-08-12T04:55:16;9.83;;;7.53;;
18280;SDS011;9266;51.132;17.062;2023-08-12T04:57:43;9.67;;;8.30;;
18280;SDS011;9266;51.132;17.062;2023-08-12T05:00:10;8.40;;;7.33;;
18280;SDS011;9266;51.132;17.062;2023-08-12T05:02:38;9.50;;;7.33;;
18280;SDS011;9266;51.132;17.062;2023-08-12T05:05:07;8.63;;;7.73;;
18280;SDS011;9266;51.132;17.062;2023-08-12T05:07:35;8.53;;;7.00;;
18280;SDS011;9266;51.132;17.062;2023-08-12T05:10:02;8.53;;;6.60;;
18280;SDS011;9266;51.132;17.062;2023-08-12T05:12:29;10.80;;;6.83;;
18280;SDS011;9266;51.132;17.062;2023-08-12T05:14:56;8.23;;;6.10;;
18280;SDS011;9266;51.132;17.062;2023-08-12T05:17:23;9.03;;;6.27;;
18280;SDS011;9266;51.132;17.062;2023-08-12T05:19:50;6.90;;;6.20;;
18280;SDS011;9266;51.132;17.062;2023-08-12T05:22:18;6.63;;;5.67;;
18280;SDS011;9266;51.132;17.062;2023-08-12T05:24:45;7.88;;;6.15;;
18280;SDS011;9266;51.132;17.062;2023-08-12T05:27:12;6.90;;;5.80;;
18280;SDS011;9266;51.132;17.062;2023-08-12T05:29:39;6.30;;;5.70;;
18280;SDS011;9266;51.132;17.062;2023-08-12T05:32:06;6.65;;;5.88;;
18280;SDS011;9266;51.132;17.062;2023-08-12T05:34:33;7.20;;;5.82;;
18280;SDS011;9266;51.132;17.062;2023-08-12T05:37:00;6.65;;;5.50;;
18280;SDS011;9266;51.132;17.062;2023-08-12T05:39:28;7.80;;;5.63;;
18280;SDS011;9266;51.132;17.062;2023-08-12T05:41:55;7.38;;;5.75;;
18280;SDS011;9266;51.132;17.062;2023-08-12T05:44:22;6.05;;;5.45;;
18280;SDS011;9266;51.132;17.062;2023-08-12T05:46:49;5.63;;;4.95;;
18280;SDS011;9266;51.132;17.062;2023-08-12T05:49:16;5.88;;;5.13;;
18280;SDS011;9266;51.132;17.062;2023-08-12T05:51:45;8.60;;;5.53;;
18280;SDS011;9266;51.132;17.062;2023-08-12T05:54:12;6.13;;;5.53;;
18280;SDS011;9266;51.132;17.062;2023-08-12T05:56:41;7.00;;;5.47;;
18280;SDS011;9266;51.132;17.062;2023-08-12T05:59:08;7.78;;;5.40;;
18280;SDS011;9266;51.132;17.062;2023-08-12T06:01:35;6.50;;;5.00;;
18280;SDS011;9266;51.132;17.062;2023-08-12T06:04:02;6.78;;;5.13;;
18280;SDS011;9266;51.132;17.062;2023-08-12T06:06:29;6.78;;;4.63;;
18280;SDS011;9266;51.132;17.062;2023-08-12T06:08:56;6.00;;;4.97;;
18280;SDS011;9266;51.132;17.062;2023-08-12T06:11:23;6.78;;;4.72;;
18280;SDS011;9266;51.132;17.062;2023-08-12T06:13:51;6.03;;;4.68;;
18280;SDS011;9266;51.132;17.062;2023-08-12T06:16:18;7.00;;;4.63;;
18280;SDS011;9266;51.132;17.062;2023-08-12T06:18:45;4.88;;;4.43;;
18280;SDS011;9266;51.132;17.062;2023-08-12T06:21:12;5.10;;;4.03;;
18280;SDS011;9266;51.132;17.062;2023-08-12T06:23:39;5.53;;;4.45;;
18280;SDS011;9266;51.132;17.062;2023-08-12T06:26:06;5.28;;;4.53;;
18280;SDS011;9266;51.132;17.062;2023-08-12T06:28:33;6.13;;;4.63;;
18280;SDS011;9266;51.132;17.062;2023-08-12T06:31:01;6.85;;;4.68;;
18280;SDS011;9266;51.132;17.062;2023-08-12T06:33:28;4.90;;;3.97;;
18280;SDS011;9266;51.132;17.062;2023-08-12T06:35:55;5.65;;;4.85;;
18280;SDS011;9266;51.132;17.062;2023-08-12T06:38:22;5.82;;;3.95;;
18280;SDS011;9266;51.132;17.062;2023-08-12T06:40:49;4.55;;;4.07;;
18280;SDS011;9266;51.132;17.062;2023-08-12T06:43:16;6.32;;;4.00;;
18280;SDS011;9266;51.132;17.062;2023-08-12T06:45:43;5.60;;;3.90;;
18280;SDS011;9266;51.132;17.062;2023-08-12T06:48:11;4.20;;;3.80;;
18280;SDS011;9266;51.132;17.062;2023-08-12T06:50:38;8.65;;;4.65;;
18280;SDS011;9266;51.132;17.062;2023-08-12T06:53:05;6.03;;;3.70;;
18280;SDS011;9266;51.132;17.062;2023-08-12T06:55:32;4.55;;;3.53;;
18280;SDS011;9266;51.132;17.062;2023-08-12T06:57:59;4.90;;;3.58;;
18280;SDS011;9266;51.132;17.062;2023-08-12T07:00:27;4.15;;;3.30;;
18280;SDS011;9266;51.132;17.062;2023-08-12T07:02:54;4.78;;;3.70;;
18280;SDS011;9266;51.132;17.062;2023-08-12T07:05:23;4.68;;;3.50;;
18280;SDS011;9266;51.132;17.062;2023-08-12T07:07:50;4.38;;;3.30;;
18280;SDS011;9266;51.132;17.062;2023-08-12T07:10:17;4.78;;;3.40;;
18280;SDS011;9266;51.132;17.062;2023-08-12T07:12:43;4.88;;;3.50;;
18280;SDS011;9266;51.132;17.062;2023-08-12T07:15:10;4.18;;;3.28;;
18280;SDS011;9266;51.132;17.062;2023-08-12T07:17:37;5.00;;;3.55;;
18280;SDS011;9266;51.132;17.062;2023-08-12T07:20:05;4.25;;;3.45;;
18280;SDS011;9266;51.132;17.062;2023-08-12T07:22:34;5.95;;;3.20;;
18280;SDS011;9266;51.132;17.062;2023-08-12T07:25:01;4.13;;;3.17;;
18280;SDS011;9266;51.132;17.062;2023-08-12T07:27:28;5.57;;;3.55;;
18280;SDS011;9266;51.132;17.062;2023-08-12T07:29:55;4.30;;;3.13;;
18280;SDS011;9266;51.132;17.062;2023-08-12T07:32:22;5.55;;;3.40;;
18280;SDS011;9266;51.132;17.062;2023-08-12T07:34:49;5.65;;;3.60;;
18280;SDS011;9266;51.132;17.062;2023-08-12T07:37:16;6.47;;;3.78;;
18280;SDS011;9266;51.132;17.062;2023-08-12T07:39:44;5.00;;;3.20;;
18280;SDS011;9266;51.132;17.062;2023-08-12T07:42:11;4.47;;;3.30;;
18280;SDS011;9266;51.132;17.062;2023-08-12T07:44:38;4.78;;;3.63;;
18280;SDS011;9266;51.132;17.062;2023-08-12T07:47:05;5.95;;;3.60;;
18280;SDS011;9266;51.132;17.062;2023-08-12T07:49:32;6.03;;;3.58;;
18280;SDS011;9266;51.132;17.062;2023-08-12T07:52:00;7.50;;;3.50;;
18280;SDS011;9266;51.132;17.062;2023-08-12T07:54:27;4.63;;;3.28;;
18280;SDS011;9266;51.132;17.062;2023-08-12T07:56:55;5.88;;;3.22;;
18280;SDS011;9266;51.132;17.062;2023-08-12T07:59:22;5.85;;;3.65;;
18280;SDS011;9266;51.132;17.062;2023-08-12T08:01:50;4.88;;;3.38;;
18280;SDS011;9266;51.132;17.062;2023-08-12T08:04:17;3.50;;;2.88;;
18280;SDS011;9266;51.132;17.062;2023-08-12T08:06:44;4.15;;;2.95;;
18280;SDS011;9266;51.132;17.062;2023-08-12T08:09:11;4.18;;;2.75;;
18280;SDS011;9266;51.132;17.062;2023-08-12T08:11:38;4.32;;;3.13;;
18280;SDS011;9266;51.132;17.062;2023-08-12T08:14:06;3.67;;;2.78;;
18280;SDS011;9266;51.132;17.062;2023-08-12T08:16:33;5.38;;;3.17;;
18280;SDS011;9266;51.132;17.062;2023-08-12T08:19:01;4.65;;;3.10;;
18280;SDS011;9266;51.132;17.062;2023-08-12T08:21:28;3.70;;;2.90;;
18280;SDS011;9266;51.132;17.062;2023-08-12T08:23:55;6.20;;;3.20;;
18280;SDS011;9266;51.132;17.062;2023-08-12T08:26:22;4.10;;;2.97;;
18280;SDS011;9266;51.132;17.062;2023-08-12T08:28:50;4.40;;;3.05;;
18280;SDS011;9266;51.132;17.062;2023-08-12T08:31:19;6.38;;;4.40;;
18280;SDS011;9266;51.132;17.062;2023-08-12T08:33:46;5.75;;;3.30;;
18280;SDS011;9266;51.132;17.062;2023-08-12T08:36:13;4.45;;;3.00;;
18280;SDS011;9266;51.132;17.062;2023-08-12T08:38:40;4.32;;;3.45;;
18280;SDS011;9266;51.132;17.062;2023-08-12T08:41:06;4.88;;;3.28;;
18280;SDS011;9266;51.132;17.062;2023-08-12T08:43:36;4.47;;;3.45;;
18280;SDS011;9266;51.132;17.062;2023-08-12T08:46:04;4.80;;;3.00;;
18280;SDS011;9266;51.132;17.062;2023-08-12T08:48:34;3.80;;;2.90;;
18280;SDS011;9266;51.132;17.062;2023-08-12T08:51:01;6.53;;;3.05;;
18280;SDS011;9266;51.132;17.062;2023-08-12T08:53:29;6.30;;;3.10;;
18280;SDS011;9266;51.132;17.062;2023-08-12T08:55:56;7.75;;;3.38;;
18280;SDS011;9266;51.132;17.062;2023-08-12T08:58:25;6.35;;;3.08;;
18280;SDS011;9266;51.132;17.062;2023-08-12T09:00:53;3.65;;;3.20;;
18280;SDS011;9266;51.132;17.062;2023-08-12T09:03:20;3.50;;;2.92;;
18280;SDS011;9266;51.132;17.062;2023-08-12T09:05:49;4.78;;;3.05;;
18280;SDS011;9266;51.132;17.062;2023-08-12T09:08:17;5.20;;;2.92;;
18280;SDS011;9266;51.132;17.062;2023-08-12T09:10:45;6.22;;;3.05;;
18280;SDS011;9266;51.132;17.062;2023-08-12T09:13:13;5.00;;;3.10;;
18280;SDS011;9266;51.132;17.062;2023-08-12T09:15:43;3.95;;;2.80;;
18280;SDS011;9266;51.132;17.062;2023-08-12T09:18:10;3.65;;;3.00;;
18280;SDS011;9266;51.132;17.062;2023-08-12T09:20:37;4.25;;;2.97;;
18280;SDS011;9266;51.132;17.062;2023-08-12T09:23:05;6.13;;;2.90;;
18280;SDS011;9266;51.132;17.062;2023-08-12T09:25:36;4.07;;;3.08;;
18280;SDS011;9266;51.132;17.062;2023-08-12T09:28:08;4.78;;;3.38;;
18280;SDS011;9266;51.132;17.062;2023-08-12T09:30:37;3.53;;;3.03;;
18280;SDS011;9266;51.132;17.062;2023-08-12T09:33:05;4.93;;;3.45;;
18280;SDS011;9266;51.132;17.062;2023-08-12T09:35:34;9.13;;;4.30;;
18280;SDS011;9266;51.132;17.062;2023-08-12T09:38:02;6.93;;;3.70;;
18280;SDS011;9266;51.132;17.062;2023-08-12T09:40:32;6.50;;;3.00;;
18280;SDS011;9266;51.132;17.062;2023-08-12T09:43:00;4.43;;;3.58;;
18280;SDS011;9266;51.132;17.062;2023-08-12T09:45:27;5.22;;;3.10;;
18280;SDS011;9266;51.132;17.062;2023-08-12T09:47:54;4.10;;;3.10;;
18280;SDS011;9266;51.132;17.062;2023-08-12T09:50:21;5.10;;;3.33;;
18280;SDS011;9266;51.132;17.062;2023-08-12T09:52:49;4.22;;;2.90;;
18280;SDS011;9266;51.132;17.062;2023-08-12T09:55:18;5.28;;;3.17;;
18280;SDS011;9266;51.132;17.062;2023-08-12T09:57:48;5.13;;;3.35;;
18280;SDS011;9266;51.132;17.062;2023-08-12T10:00:17;4.28;;;2.97;;
18280;SDS011;9266;51.132;17.062;2023-08-12T10:02:46;4.53;;;2.88;;
18280;SDS011;9266;51.132;17.062;2023-08-12T10:05:18;6.80;;;3.00;;
18280;SDS011;9266;51.132;17.062;2023-08-12T10:07:47;6.07;;;3.03;;
18280;SDS011;9266;51.132;17.062;2023-08-12T10:10:14;5.28;;;2.88;;
18280;SDS011;9266;51.132;17.062;2023-08-12T10:12:42;3.40;;;3.10;;
18280;SDS011;9266;51.132;17.062;2023-08-12T10:15:10;6.68;;;2.88;;
18280;SDS011;9266;51.132;17.062;2023-08-12T10:17:38;5.32;;;3.22;;
18280;SDS011;9266;51.132;17.062;2023-08-12T10:20:07;4.88;;;2.80;;
18280;SDS011;9266;51.132;17.062;2023-08-12T10:22:36;5.13;;;3.00;;
18280;SDS011;9266;51.132;17.062;2023-08-12T10:25:06;4.78;;;3.00;;
18280;SDS011;9266;51.132;17.062;2023-08-12T10:27:34;6.88;;;3.28;;
18280;SDS011;9266;51.132;17.062;2023-08-12T10:30:03;3.25;;;2.80;;
18280;SDS011;9266;51.132;17.062;2023-08-12T10:32:31;6.88;;;2.97;;
18280;SDS011;9266;51.132;17.062;2023-08-12T10:34:59;4.38;;;2.70;;
18280;SDS011;9266;51.132;17.062;2023-08-12T10:37:30;5.35;;;2.97;;
18280;SDS011;9266;51.132;17.062;2023-08-12T10:39:58;3.40;;;2.75;;
18280;SDS011;9266;51.132;17.062;2023-08-12T10:45:11;3.88;;;2.80;;
18280;SDS011;9266;51.132;17.062;2023-08-12T10:47:40;7.88;;;2.95;;
18280;SDS011;9266;51.132;17.062;2023-08-12T10:50:18;5.10;;;3.20;;
18280;SDS011;9266;51.132;17.062;2023-08-12T10:52:46;3.75;;;3.00;;
18280;SDS011;9266;51.132;17.062;2023-08-12T10:55:17;6.63;;;3.63;;
18280;SDS011;9266;51.132;17.062;2023-08-12T10:57:46;5.07;;;3.33;;
18280;SDS011;9266;51.132;17.062;2023-08-12T11:00:13;4.45;;;2.65;;
18280;SDS011;9266;51.132;17.062;2023-08-12T11:02:45;4.45;;;3.15;;
18280;SDS011;9266;51.132;17.062;2023-08-12T11:05:14;3.53;;;2.38;;
18280;SDS011;9266;51.132;17.062;2023-08-12T11:07:45;4.43;;;2.70;;
18280;SDS011;9266;51.132;17.062;2023-08-12T11:10:15;4.32;;;2.95;;
18280;SDS011;9266;51.132;17.062;2023-08-12T11:12:46;3.83;;;2.55;;
18280;SDS011;9266;51.132;17.062;2023-08-12T11:15:15;4.28;;;2.40;;
18280;SDS011;9266;51.132;17.062;2023-08-12T11:17:42;3.55;;;2.88;;
18280;SDS011;9266;51.132;17.062;2023-08-12T11:20:13;3.40;;;2.75;;
18280;SDS011;9266;51.132;17.062;2023-08-12T11:22:40;3.78;;;2.80;;
18280;SDS011;9266;51.132;17.062;2023-08-12T11:25:08;3.03;;;2.55;;
18280;SDS011;9266;51.132;17.062;2023-08-12T11:27:40;3.08;;;2.42;;
18280;SDS011;9266;51.132;17.062;2023-08-12T11:30:08;4.80;;;2.70;;
18280;SDS011;9266;51.132;17.062;2023-08-12T11:32:36;4.20;;;2.45;;
18280;SDS011;9266;51.132;17.062;2023-08-12T11:35:04;4.35;;;2.38;;
18280;SDS011;9266;51.132;17.062;2023-08-12T11:37:34;3.53;;;2.40;;
18280;SDS011;9266;51.132;17.062;2023-08-12T11:40:01;4.00;;;2.60;;
18280;SDS011;9266;51.132;17.062;2023-08-12T11:42:29;7.63;;;2.65;;
18280;SDS011;9266;51.132;17.062;2023-08-12T11:44:56;3.05;;;2.42;;
18280;SDS011;9266;51.132;17.062;2023-08-12T11:47:23;2.70;;;2.50;;
18280;SDS011;9266;51.132;17.062;2023-08-12T11:49:51;2.95;;;2.40;;
18280;SDS011;9266;51.132;17.062;2023-08-12T11:52:18;4.20;;;2.75;;
18280;SDS011;9266;51.132;17.062;2023-08-12T11:54:47;5.85;;;2.95;;
18280;SDS011;9266;51.132;17.062;2023-08-12T11:57:15;3.83;;;2.80;;
18280;SDS011;9266;51.132;17.062;2023-08-12T11:59:42;3.80;;;2.63;;
18280;SDS011;9266;51.132;17.062;2023-08-12T12:02:10;4.93;;;2.40;;
18280;SDS011;9266;51.132;17.062;2023-08-12T12:04:37;3.75;;;2.67;;
18280;SDS011;9266;51.132;17.062;2023-08-12T12:07:16;4.53;;;2.45;;
18280;SDS011;9266;51.132;17.062;2023-08-12T12:09:44;2.60;;;2.40;;
18280;SDS011;9266;51.132;17.062;2023-08-12T12:12:12;3.20;;;2.38;;
18280;SDS011;9266;51.132;17.062;2023-08-12T12:14:40;4.13;;;2.55;;
18280;SDS011;9266;51.132;17.062;2023-08-12T12:17:07;3.78;;;2.40;;
18280;SDS011;9266;51.132;17.062;2023-08-12T12:19:35;3.80;;;2.53;;
18280;SDS011;9266;51.132;17.062;2023-08-12T12:22:02;5.82;;;2.75;;
18280;SDS011;9266;51.132;17.062;2023-08-12T12:24:30;4.47;;;2.70;;
18280;SDS011;9266;51.132;17.062;2023-08-12T12:26:58;4.00;;;2.78;;
18280;SDS011;9266;51.132;17.062;2023-08-12T12:29:26;3.17;;;2.60;;
18280;SDS011;9266;51.132;17.062;2023-08-12T12:31:53;4.53;;;2.80;;
18280;SDS011;9266;51.132;17.062;2023-08-12T12:34:20;4.75;;;2.85;;
18280;SDS011;9266;51.132;17.062;2023-08-12T12:36:47;5.03;;;2.88;;
18280;SDS011;9266;51.132;17.062;2023-08-12T12:39:14;6.15;;;3.35;;
18280;SDS011;9266;51.132;17.062;2023-08-12T12:41:42;5.38;;;3.17;;
18280;SDS011;9266;51.132;17.062;2023-08-12T12:44:09;3.95;;;2.60;;
18280;SDS011;9266;51.132;17.062;2023-08-12T12:46:37;3.83;;;2.35;;
18280;SDS011;9266;51.132;17.062;2023-08-12T12:49:04;10.13;;;3.05;;
18280;SDS011;9266;51.132;17.062;2023-08-12T12:51:31;4.18;;;2.80;;
18280;SDS011;9266;51.132;17.062;2023-08-12T12:53:58;3.78;;;2.38;;
18280;SDS011;9266;51.132;17.062;2023-08-12T12:56:25;2.92;;;2.55;;
18280;SDS011;9266;51.132;17.062;2023-08-12T12:58:52;3.17;;;2.78;;
18280;SDS011;9266;51.132;17.062;2023-08-12T13:01:19;3.55;;;3.00;;
18280;SDS011;9266;51.132;17.062;2023-08-12T13:03:48;4.30;;;2.63;;
18280;SDS011;9266;51.132;17.062;2023-08-12T13:06:15;3.50;;;2.78;;
18280;SDS011;9266;51.132;17.062;2023-08-12T13:08:41;4.22;;;2.15;;
18280;SDS011;9266;51.132;17.062;2023-08-12T13:11:08;3.33;;;2.35;;
18280;SDS011;9266;51.132;17.062;2023-08-12T13:13:35;3.42;;;2.60;;
18280;SDS011;9266;51.132;17.062;2023-08-12T13:16:02;3.80;;;2.75;;
18280;SDS011;9266;51.132;17.062;2023-08-12T13:18:29;3.78;;;2.70;;
18280;SDS011;9266;51.132;17.062;2023-08-12T13:20:58;4.47;;;2.50;;
18280;SDS011;9266;51.132;17.062;2023-08-12T13:23:25;3.92;;;2.45;;
18280;SDS011;9266;51.132;17.062;2023-08-12T13:25:52;3.80;;;2.45;;
18280;SDS011;9266;51.132;17.062;2023-08-12T13:28:19;4.38;;;2.65;;
18280;SDS011;9266;51.132;17.062;2023-08-12T13:30:46;3.13;;;2.47;;
18280;SDS011;9266;51.132;17.062;2023-08-12T13:33:13;4.65;;;2.70;;
18280;SDS011;9266;51.132;17.062;2023-08-12T13:35:40;3.85;;;2.60;;
18280;SDS011;9266;51.132;17.062;2023-08-12T13:38:08;3.72;;;2.60;;
18280;SDS011;9266;51.132;17.062;2023-08-12T13:40:35;7.25;;;2.45;;
18280;SDS011;9266;51.132;17.062;2023-08-12T13:43:02;5.22;;;2.47;;
18280;SDS011;9266;51.132;17.062;2023-08-12T13:45:29;4.15;;;2.60;;
18280;SDS011;9266;51.132;17.062;2023-08-12T13:47:56;4.38;;;2.40;;
18280;SDS011;9266;51.132;17.062;2023-08-12T13:50:23;4.93;;;2.47;;
18280;SDS011;9266;51.132;17.062;2023-08-12T13:52:50;3.38;;;2.70;;
18280;SDS011;9266;51.132;17.062;2023-08-12T13:55:18;3.63;;;2.78;;
18280;SDS011;9266;51.132;17.062;2023-08-12T13:57:45;6.15;;;3.13;;
18280;SDS011;9266;51.132;17.062;2023-08-12T14:00:12;3.97;;;3.00;;
18280;SDS011;9266;51.132;17.062;2023-08-12T14:02:40;2.95;;;2.50;;
18280;SDS011;9266;51.132;17.062;2023-08-12T14:05:07;3.72;;;2.13;;
18280;SDS011;9266;51.132;17.062;2023-08-12T14:07:35;4.85;;;2.47;;
18280;SDS011;9266;51.132;17.062;2023-08-12T14:10:03;3.47;;;2.65;;
18280;SDS011;9266;51.132;17.062;2023-08-12T14:12:32;3.70;;;2.50;;
18280;SDS011;9266;51.132;17.062;2023-08-12T14:14:59;2.92;;;2.47;;
18280;SDS011;9266;51.132;17.062;2023-08-12T14:17:26;4.50;;;2.97;;
18280;SDS011;9266;51.132;17.062;2023-08-12T14:19:53;4.85;;;2.80;;
18280;SDS011;9266;51.132;17.062;2023-08-12T14:22:20;4.32;;;2.72;;
18280;SDS011;9266;51.132;17.062;2023-08-12T14:24:47;4.60;;;2.95;;
18280;SDS011;9266;51.132;17.062;2023-08-12T14:27:14;4.93;;;2.85;;
18280;SDS011;9266;51.132;17.062;2023-08-12T14:29:44;4.60;;;2.80;;
18280;SDS011;9266;51.132;17.062;2023-08-12T14:32:11;4.05;;;3.00;;
18280;SDS011;9266;51.132;17.062;2023-08-12T14:34:41;3.10;;;2.78;;
18280;SDS011;9266;51.132;17.062;2023-08-12T14:37:10;5.75;;;2.80;;
18280;SDS011;9266;51.132;17.062;2023-08-12T14:39:37;7.28;;;2.47;;
18280;SDS011;9266;51.132;17.062;2023-08-12T14:42:04;2.88;;;2.47;;
18280;SDS011;9266;51.132;17.062;2023-08-12T14:44:33;3.45;;;2.72;;
18280;SDS011;9266;51.132;17.062;2023-08-12T14:47:01;7.05;;;2.67;;